Time;durP1;ratioP1;P1;durP2;ratioP2;P2;SDS_P1;SDS_P2;PMS_P1;PMS_P2;Temp;Humidity;BMP_temperature;BMP_pressure;BME280_temperature;BME280_humidity;BME280_pressure;Samples;Min_cycle;Max_cycle;Signal;HPM_P1;HPM_P2
2023/09/21 00:01:03;;;;;;;2.60;1.80;;;19.80;99.90;;;;;;5102539;28;20453;-64
2023/09/21 00:03:29;;;;;;;2.23;2.00;;;19.80;99.90;;;;;;5101769;28;20171;-64
2023/09/21 00:05:56;;;;;;;2.30;2.00;;;19.80;99.90;;;;;;5102744;28;20428;-64
2023/09/21 00:08:25;;;;;;;2.03;1.80;;;19.90;99.90;;;;;;5101459;28;20430;-63
2023/09/21 00:10:52;;;;;;;3.60;2.07;;;19.80;99.90;;;;;;5102355;28;20457;-64
2023/09/21 00:13:27;;;;;;;2.90;1.97;;;19.80;99.90;;;;;;5102411;28;21124;-64
2023/09/21 00:16:11;;;;;;;2.67;2.10;;;19.80;99.90;;;;;;5102481;28;20426;-64
2023/09/21 00:18:42;;;;;;;3.83;2.10;;;19.80;99.90;;;;;;5101119;28;20548;-64
2023/09/21 00:21:08;;;;;;;2.00;1.77;;;19.80;99.90;;;;;;5102736;28;20429;-64
2023/09/21 00:23:33;;;;;;;2.60;2.10;;;19.80;99.90;;;;;;5100236;28;20499;-63
2023/09/21 00:26:00;;;;;;;2.30;1.40;;;19.80;99.90;;;;;;5102775;28;20180;-64
2023/09/21 00:28:30;;;;;;;4.10;2.33;;;19.80;99.90;;;;;;5101644;28;20522;-64
2023/09/21 00:31:01;;;;;;;4.03;2.50;;;19.80;99.90;;;;;;5102352;28;20444;-64
2023/09/21 00:33:28;;;;;;;2.40;1.80;;;19.80;99.90;;;;;;5102067;28;20441;-64
2023/09/21 00:35:55;;;;;;;2.93;2.43;;;19.80;99.90;;;;;;5102915;28;20432;-64
2023/09/21 00:38:22;;;;;;;2.20;1.90;;;19.70;99.90;;;;;;5101839;28;20445;-64
2023/09/21 00:40:48;;;;;;;2.30;1.90;;;19.70;99.90;;;;;;5102244;28;20449;-63
2023/09/21 00:43:21;;;;;;;1.70;1.60;;;19.80;99.90;;;;;;5102345;28;20983;-62
2023/09/21 00:45:51;;;;;;;3.77;2.00;;;19.80;99.90;;;;;;5101605;28;20283;-63
2023/09/21 00:48:25;;;;;;;3.67;2.00;;;19.80;99.90;;;;;;5101922;28;20421;-63
2023/09/21 00:50:56;;;;;;;2.17;1.90;;;19.80;99.90;;;;;;5100209;28;20444;-63
2023/09/21 00:53:22;;;;;;;3.93;2.00;;;19.80;99.90;;;;;;5100904;28;20520;-63
2023/09/21 00:55:52;;;;;;;3.47;2.00;;;19.80;99.90;;;;;;5098238;28;20920;-63
2023/09/21 00:58:21;;;;;;;2.47;2.00;;;19.80;99.90;;;;;;5105331;28;20441;-63
2023/09/21 01:00:49;;;;;;;3.10;1.90;;;19.70;99.90;;;;;;5105985;28;20420;-64
2023/09/21 01:03:15;;;;;;;2.33;2.13;;;19.70;99.90;;;;;;5105751;28;20429;-63
2023/09/21 01:05:42;;;;;;;2.73;2.30;;;19.70;99.90;;;;;;5105741;28;20941;-63
2023/09/21 01:08:18;;;;;;;2.47;2.10;;;19.70;99.90;;;;;;5106050;28;20795;-63
2023/09/21 01:10:49;;;;;;;4.77;1.93;;;19.70;99.90;;;;;;5105752;28;20445;-63
2023/09/21 01:13:19;;;;;;;2.90;1.97;;;19.70;99.90;;;;;;5105466;28;20436;-63
2023/09/21 01:15:58;;;;;;;3.57;1.97;;;19.70;99.90;;;;;;5079604;28;20437;-64
2023/09/21 01:18:24;;;;;;;2.20;1.70;;;19.70;99.90;;;;;;5084529;28;20808;-63
2023/09/21 01:20:54;;;;;;;2.60;1.90;;;19.70;99.90;;;;;;5103623;28;20436;-64
2023/09/21 01:23:24;;;;;;;2.07;1.77;;;19.70;99.90;;;;;;5104475;28;20743;-63
2023/09/21 01:25:51;;;;;;;2.13;1.93;;;19.70;99.90;;;;;;5105336;28;20935;-64
2023/09/21 01:28:22;;;;;;;2.47;1.70;;;19.70;99.90;;;;;;5104500;28;20520;-63
2023/09/21 01:30:49;;;;;;;1.93;1.73;;;19.70;99.90;;;;;;5096296;28;20418;-63
2023/09/21 01:33:15;;;;;;;2.40;1.90;;;19.80;99.90;;;;;;5098834;28;20475;-63
2023/09/21 01:35:47;;;;;;;2.70;2.20;;;19.80;99.90;;;;;;5096429;28;20421;-63
2023/09/21 01:38:13;;;;;;;2.33;1.90;;;19.80;99.90;;;;;;5104889;28;20461;-63
2023/09/21 01:40:41;;;;;;;2.53;2.00;;;19.80;99.90;;;;;;5076072;28;20521;-63
2023/09/21 01:43:09;;;;;;;2.47;1.77;;;19.70;99.90;;;;;;5105327;28;21185;-64
2023/09/21 01:45:37;;;;;;;2.13;1.53;;;19.70;99.90;;;;;;5104141;28;21206;-63
2023/09/21 01:48:08;;;;;;;3.10;1.83;;;19.70;99.90;;;;;;5105059;28;20426;-64
2023/09/21 01:50:35;;;;;;;2.40;2.07;;;19.70;99.90;;;;;;5104429;28;20556;-63
2023/09/21 01:53:04;;;;;;;2.47;1.80;;;19.70;99.90;;;;;;5096823;28;20846;-64
2023/09/21 01:55:31;;;;;;;3.10;1.97;;;19.70;99.90;;;;;;5104295;28;20436;-63
2023/09/21 01:57:57;;;;;;;2.10;1.90;;;19.70;99.90;;;;;;5104669;28;20426;-63
2023/09/21 02:00:25;;;;;;;3.00;2.20;;;19.80;99.90;;;;;;5103933;28;20945;-62
2023/09/21 02:02:54;;;;;;;2.10;1.77;;;19.70;99.90;;;;;;5098077;28;20183;-64
2023/09/21 02:05:21;;;;;;;4.57;2.00;;;19.70;99.90;;;;;;5103898;28;20429;-63
2023/09/21 02:07:47;;;;;;;2.73;1.70;;;19.70;99.90;;;;;;5104499;28;20881;-64
2023/09/21 02:10:17;;;;;;;2.20;1.63;;;19.70;99.90;;;;;;5104430;28;20539;-64
2023/09/21 02:12:53;;;;;;;2.30;2.07;;;19.70;99.90;;;;;;5096454;28;20793;-63
2023/09/21 02:15:19;;;;;;;1.67;1.57;;;19.80;99.90;;;;;;5103758;28;20931;-63
2023/09/21 02:17:45;;;;;;;2.03;1.80;;;19.80;99.90;;;;;;5101531;28;20421;-64
2023/09/21 02:20:14;;;;;;;2.87;2.00;;;19.70;99.90;;;;;;5104007;28;20689;-62
2023/09/21 02:22:52;;;;;;;1.60;1.50;;;19.80;99.90;;;;;;5104812;28;20432;-64
2023/09/21 02:25:19;;;;;;;2.70;1.67;;;19.70;99.90;;;;;;5103813;28;20425;-63
2023/09/21 02:27:48;;;;;;;2.97;2.20;;;19.80;99.90;;;;;;5104101;28;20494;-64
2023/09/21 02:30:21;;;;;;;1.70;1.60;;;19.80;99.90;;;;;;5095040;28;21222;-63
2023/09/21 02:32:50;;;;;;;2.57;1.77;;;19.70;99.90;;;;;;5095609;28;20525;-64
2023/09/21 02:35:22;;;;;;;1.70;1.47;;;19.70;99.90;;;;;;5101742;28;21006;-63
2023/09/21 02:37:48;;;;;;;2.00;1.73;;;19.80;99.90;;;;;;5103015;28;20417;-64
2023/09/21 02:40:16;;;;;;;2.13;1.87;;;19.70;99.90;;;;;;5104027;28;20422;-63
2023/09/21 02:42:46;;;;;;;1.67;1.57;;;19.70;99.90;;;;;;5104258;28;20430;-64
2023/09/21 02:45:12;;;;;;;2.60;1.60;;;19.70;99.90;;;;;;5103766;28;20526;-63
2023/09/21 02:47:42;;;;;;;2.10;1.87;;;19.70;99.90;;;;;;5103198;28;20432;-63
2023/09/21 02:50:14;;;;;;;2.43;1.77;;;19.70;99.90;;;;;;5101902;28;20456;-63
2023/09/21 02:52:45;;;;;;;3.87;1.93;;;19.70;99.90;;;;;;5095262;28;20478;-63
2023/09/21 02:55:12;;;;;;;2.90;1.70;;;19.70;99.90;;;;;;5103692;28;20429;-63
2023/09/21 02:57:39;;;;;;;2.87;1.80;;;19.70;99.90;;;;;;5103647;28;20422;-63
2023/09/21 03:00:13;;;;;;;2.70;1.43;;;19.70;99.90;;;;;;5103684;28;20529;-63
2023/09/21 03:02:39;;;;;;;3.20;1.67;;;19.60;99.90;;;;;;5097064;28;20521;-63
2023/09/21 03:05:09;;;;;;;2.07;1.80;;;19.60;99.90;;;;;;5103995;28;21076;-64
2023/09/21 03:07:38;;;;;;;2.47;1.70;;;19.60;99.90;;;;;;5103089;28;20256;-63
2023/09/21 03:10:09;;;;;;;1.70;1.60;;;19.60;99.90;;;;;;5098564;28;20947;-63
2023/09/21 03:12:37;;;;;;;4.43;1.80;;;19.60;99.90;;;;;;5095834;28;20431;-63
2023/09/21 03:15:07;;;;;;;2.10;2.00;;;19.60;99.90;;;;;;5101483;28;20429;-64
2023/09/21 03:17:34;;;;;;;2.73;1.80;;;19.60;99.90;;;;;;5098218;28;20942;-64
2023/09/21 03:20:11;;;;;;;2.90;2.17;;;19.60;99.90;;;;;;5101677;28;20457;-64
2023/09/21 03:22:37;;;;;;;2.57;1.93;;;19.60;99.90;;;;;;5101290;28;20425;-64
2023/09/21 03:25:05;;;;;;;2.23;2.03;;;19.60;99.90;;;;;;5096817;28;20488;-64
2023/09/21 03:27:31;;;;;;;4.13;1.83;;;19.50;99.90;;;;;;5101594;28;20838;-64
2023/09/21 03:29:56;;;;;;;3.00;1.73;;;19.50;99.90;;;;;;5099596;28;20509;-64
2023/09/21 03:32:25;;;;;;;3.77;2.13;;;19.50;99.90;;;;;;5097689;28;20187;-63
2023/09/21 03:34:51;;;;;;;2.23;2.03;;;19.50;99.90;;;;;;5100735;28;20195;-64
2023/09/21 03:37:17;;;;;;;2.70;1.80;;;19.50;99.90;;;;;;5093992;28;20439;-63
2023/09/21 03:39:42;;;;;;;2.30;1.97;;;19.50;99.90;;;;;;5100955;28;20195;-64
2023/09/21 03:42:09;;;;;;;3.47;2.00;;;19.40;99.90;;;;;;5102100;28;20187;-63
2023/09/21 03:44:35;;;;;;;2.17;1.97;;;19.50;99.90;;;;;;5083823;28;20195;-63
2023/09/21 03:47:03;;;;;;;1.63;1.33;;;19.50;99.90;;;;;;5097057;28;20473;-64
2023/09/21 03:49:30;;;;;;;2.20;2.00;;;19.40;99.90;;;;;;5100298;28;20486;-63
2023/09/21 03:51:56;;;;;;;2.33;1.90;;;19.40;99.90;;;;;;5103142;28;20418;-63
2023/09/21 03:54:21;;;;;;;2.60;2.00;;;19.40;99.90;;;;;;5102272;28;20444;-63
2023/09/21 03:56:47;;;;;;;5.23;2.23;;;19.30;99.90;;;;;;5101122;28;20222;-64
2023/09/21 03:59:13;;;;;;;2.60;1.70;;;19.30;99.90;;;;;;5094162;28;20211;-63
2023/09/21 04:01:39;;;;;;;3.83;2.17;;;19.30;99.90;;;;;;5102547;28;20257;-63
2023/09/21 04:04:05;;;;;;;2.27;1.90;;;19.40;99.90;;;;;;5102808;28;20191;-64
2023/09/21 04:06:31;;;;;;;4.03;2.13;;;19.30;99.90;;;;;;5102442;28;20426;-63
2023/09/21 04:08:57;;;;;;;4.27;1.70;;;19.30;99.90;;;;;;5102946;28;20505;-64
2023/09/21 04:11:25;;;;;;;2.30;1.60;;;19.30;99.90;;;;;;5102127;28;20520;-63
2023/09/21 04:13:50;;;;;;;2.67;1.50;;;19.30;99.90;;;;;;5103101;28;20602;-63
2023/09/21 04:16:16;;;;;;;2.00;1.80;;;19.30;99.90;;;;;;5102335;28;20450;-63
2023/09/21 04:18:42;;;;;;;2.30;2.00;;;19.30;99.90;;;;;;5102641;28;20249;-63
2023/09/21 04:21:08;;;;;;;4.90;2.60;;;19.30;99.90;;;;;;5102701;28;20617;-63
2023/09/21 04:23:34;;;;;;;4.13;1.90;;;19.30;99.90;;;;;;5102228;28;20304;-63
2023/09/21 04:26:00;;;;;;;2.73;2.00;;;19.30;99.90;;;;;;5102807;28;20979;-64
2023/09/21 04:28:25;;;;;;;2.83;1.70;;;19.30;99.90;;;;;;5102970;28;20199;-63
2023/09/21 04:30:51;;;;;;;2.27;1.93;;;19.30;99.90;;;;;;5099553;28;20212;-64
2023/09/21 04:33:17;;;;;;;6.23;2.40;;;19.30;99.90;;;;;;5103925;28;20203;-63
2023/09/21 04:35:43;;;;;;;3.07;2.23;;;19.30;99.90;;;;;;5098087;28;20187;-64
2023/09/21 04:38:09;;;;;;;2.23;2.03;;;19.30;99.90;;;;;;5103920;28;20179;-63
2023/09/21 04:40:35;;;;;;;3.47;2.23;;;19.30;99.90;;;;;;5102829;28;20433;-63
2023/09/21 04:43:00;;;;;;;2.67;2.17;;;19.30;99.90;;;;;;5107423;27;20229;-64
2023/09/21 04:45:26;;;;;;;4.30;2.40;;;19.30;99.90;;;;;;5096203;27;21164;-63
2023/09/21 04:47:58;;;;;;;2.27;1.90;;;19.30;99.90;;;;;;5101131;28;20524;-64
2023/09/21 04:50:24;;;;;;;4.00;2.20;;;19.30;99.90;;;;;;5099707;28;20452;-64
2023/09/21 04:52:50;;;;;;;1.93;1.70;;;19.30;99.90;;;;;;5101011;27;20437;-63
2023/09/21 04:55:16;;;;;;;2.83;2.17;;;19.40;99.90;;;;;;5103181;28;20433;-63
2023/09/21 04:57:43;;;;;;;4.20;2.20;;;19.30;99.90;;;;;;5103968;28;20183;-63
2023/09/21 05:00:14;;;;;;;2.57;1.90;;;19.30;99.90;;;;;;5103492;28;21034;-63
2023/09/21 05:02:40;;;;;;;4.17;2.30;;;19.30;99.90;;;;;;5091506;28;20861;-64
2023/09/21 05:05:06;;;;;;;2.23;1.73;;;19.40;99.90;;;;;;5103665;28;21264;-65
2023/09/21 05:07:35;;;;;;;2.90;1.80;;;19.30;99.90;;;;;;5102837;28;20453;-63
2023/09/21 05:10:01;;;;;;;3.03;1.80;;;19.40;99.90;;;;;;5110392;27;21037;-63
2023/09/21 05:12:27;;;;;;;3.43;2.30;;;19.30;99.90;;;;;;5101406;28;20430;-63
2023/09/21 05:14:53;;;;;;;2.80;2.07;;;19.30;99.90;;;;;;5103704;28;20444;-63
2023/09/21 05:17:18;;;;;;;5.43;2.27;;;19.30;99.90;;;;;;5095703;28;20425;-63
2023/09/21 05:19:44;;;;;;;2.33;1.90;;;19.30;99.90;;;;;;5102148;28;20200;-63
2023/09/21 05:22:10;;;;;;;2.93;1.93;;;19.30;99.90;;;;;;5104975;28;20735;-63
2023/09/21 05:24:37;;;;;;;2.17;1.70;;;19.30;99.90;;;;;;5101177;28;20180;-64
2023/09/21 05:27:09;;;;;;;1.93;1.73;;;19.30;99.90;;;;;;5105261;28;20509;-62
2023/09/21 05:29:37;;;;;;;4.57;2.10;;;19.40;99.90;;;;;;5102075;28;20444;-63
2023/09/21 05:32:05;;;;;;;1.97;1.60;;;19.30;99.90;;;;;;5100207;28;20437;-63
2023/09/21 05:34:32;;;;;;;5.57;1.90;;;19.30;99.90;;;;;;5105219;28;20422;-64
2023/09/21 05:36:58;;;;;;;2.80;2.10;;;19.40;99.90;;;;;;5105298;28;20485;-64
2023/09/21 05:39:24;;;;;;;2.40;2.20;;;19.40;99.90;;;;;;5084012;28;20473;-63
2023/09/21 05:41:51;;;;;;;2.70;1.83;;;19.30;99.90;;;;;;5104006;28;20188;-63
2023/09/21 05:44:21;;;;;;;2.90;2.20;;;19.30;99.90;;;;;;5104330;28;20421;-63
2023/09/21 05:46:49;;;;;;;2.30;1.93;;;19.30;99.90;;;;;;5105085;28;20450;-63
2023/09/21 05:49:22;;;;;;;2.47;1.70;;;19.30;99.90;;;;;;5104150;28;20429;-63
2023/09/21 05:51:52;;;;;;;2.20;1.90;;;19.30;99.90;;;;;;5097566;27;20460;-64
2023/09/21 05:54:20;;;;;;;4.10;1.83;;;19.40;99.90;;;;;;5098767;28;20542;-63
2023/09/21 05:56:47;;;;;;;3.80;2.30;;;19.40;99.90;;;;;;5094835;28;20434;-64
2023/09/21 05:59:13;;;;;;;2.87;2.07;;;19.40;99.90;;;;;;5101211;28;20464;-63
2023/09/21 06:01:39;;;;;;;3.17;1.90;;;19.50;99.90;;;;;;5101865;27;20855;-63
2023/09/21 06:04:05;;;;;;;2.70;2.00;;;19.50;99.90;;;;;;5100011;28;20191;-63
2023/09/21 06:06:33;;;;;;;4.93;2.30;;;19.50;99.90;;;;;;5100341;28;20441;-63
2023/09/21 06:08:59;;;;;;;3.97;2.00;;;19.60;99.90;;;;;;5102227;28;20781;-63
2023/09/21 06:11:26;;;;;;;3.20;2.03;;;19.60;99.90;;;;;;5102015;28;21202;-63
2023/09/21 06:13:54;;;;;;;2.27;2.07;;;19.70;99.90;;;;;;5101615;28;20243;-63
2023/09/21 06:16:20;;;;;;;2.93;2.00;;;19.70;99.90;;;;;;5101211;27;20429;-63
2023/09/21 06:18:48;;;;;;;4.60;2.50;;;19.70;99.90;;;;;;5104582;28;20518;-63
2023/09/21 06:21:14;;;;;;;2.13;1.83;;;19.80;99.90;;;;;;5097771;28;20520;-63
2023/09/21 06:23:42;;;;;;;2.23;2.03;;;19.90;99.90;;;;;;5092512;28;20487;-63
2023/09/21 06:26:08;;;;;;;2.37;2.17;;;19.90;99.90;;;;;;5097524;28;20425;-63
2023/09/21 06:28:33;;;;;;;3.17;2.60;;;20.00;99.90;;;;;;5085517;28;20505;-63
2023/09/21 06:31:05;;;;;;;2.17;1.97;;;20.00;99.90;;;;;;5108046;27;20207;-63
2023/09/21 06:33:32;;;;;;;2.97;1.70;;;20.10;99.90;;;;;;5110154;27;20554;-62
2023/09/21 06:35:58;;;;;;;3.03;1.90;;;20.10;99.90;;;;;;5101338;27;20788;-64
2023/09/21 06:38:24;;;;;;;1.70;1.60;;;20.10;99.90;;;;;;5104042;27;20465;-63
2023/09/21 06:40:49;;;;;;;2.77;2.53;;;20.10;99.90;;;;;;5092421;27;20507;-64
2023/09/21 06:43:15;;;;;;;4.83;1.90;;;20.10;99.90;;;;;;5096748;27;20179;-63
2023/09/21 06:45:41;;;;;;;3.43;2.67;;;20.10;99.90;;;;;;5090146;28;20188;-63
2023/09/21 06:48:10;;;;;;;6.87;2.33;;;20.10;99.90;;;;;;5108290;27;20242;-63
2023/09/21 06:50:39;;;;;;;3.80;2.37;;;20.10;99.90;;;;;;5100824;28;21302;-63
2023/09/21 06:53:08;;;;;;;4.30;2.70;;;20.10;99.90;;;;;;5103482;28;20433;-63
2023/09/21 06:55:34;;;;;;;3.67;2.17;;;20.10;99.90;;;;;;5097120;28;20483;-63
2023/09/21 06:58:00;;;;;;;2.40;2.20;;;20.10;99.90;;;;;;5101052;28;20784;-63
2023/09/21 07:00:26;;;;;;;2.47;2.23;;;20.10;99.90;;;;;;5101556;28;20426;-64
2023/09/21 07:02:53;;;;;;;2.63;2.20;;;20.20;99.90;;;;;;5100971;27;20911;-63
2023/09/21 07:05:19;;;;;;;4.80;2.10;;;20.20;99.90;;;;;;5107217;27;20426;-63
2023/09/21 07:07:46;;;;;;;4.80;2.70;;;20.30;99.90;;;;;;5099767;28;20423;-63
2023/09/21 07:10:11;;;;;;;3.03;2.63;;;20.30;99.90;;;;;;5100558;28;20783;-63
2023/09/21 07:12:39;;;;;;;2.30;1.67;;;20.40;99.90;;;;;;5101470;28;20478;-63
2023/09/21 07:15:07;;;;;;;3.47;2.17;;;20.40;99.90;;;;;;5100567;28;20172;-63
2023/09/21 07:17:34;;;;;;;2.20;1.70;;;20.50;99.90;;;;;;5100035;27;20957;-63
2023/09/21 07:20:01;;;;;;;2.43;2.20;;;20.50;99.90;;;;;;5101583;27;20480;-62
2023/09/21 07:22:27;;;;;;;2.67;2.20;;;20.50;99.90;;;;;;5100417;28;20429;-63
2023/09/21 07:24:53;;;;;;;2.43;2.00;;;20.60;99.90;;;;;;5074170;28;20429;-64
2023/09/21 07:27:18;;;;;;;3.80;2.23;;;20.60;99.90;;;;;;5100828;28;20425;-63
2023/09/21 07:29:44;;;;;;;2.47;2.03;;;20.70;99.90;;;;;;5100374;28;20183;-63
2023/09/21 07:32:11;;;;;;;2.20;2.00;;;20.80;99.90;;;;;;5098821;28;20198;-63
2023/09/21 07:34:37;;;;;;;2.60;2.10;;;20.90;99.90;;;;;;5096439;28;20191;-63
2023/09/21 07:37:03;;;;;;;2.23;1.90;;;21.00;99.90;;;;;;5103116;28;20425;-64
2023/09/21 07:39:29;;;;;;;3.10;2.13;;;21.10;99.90;;;;;;5102933;28;20808;-64
2023/09/21 07:41:55;;;;;;;2.90;2.60;;;21.20;99.90;;;;;;5097986;28;20198;-63
2023/09/21 07:44:22;;;;;;;2.43;2.23;;;21.30;99.90;;;;;;5098091;28;20219;-63
2023/09/21 07:46:50;;;;;;;8.13;2.60;;;21.30;99.90;;;;;;5100808;28;21200;-63
2023/09/21 07:49:17;;;;;;;2.23;2.03;;;21.30;99.90;;;;;;5099400;28;21218;-63
2023/09/21 07:51:43;;;;;;;3.13;2.40;;;21.50;99.90;;;;;;5098449;28;21116;-64
2023/09/21 07:54:09;;;;;;;3.20;2.10;;;21.60;99.90;;;;;;5102656;28;21096;-63
2023/09/21 07:56:36;;;;;;;3.20;1.93;;;21.70;99.90;;;;;;5097133;28;20426;-64
2023/09/21 07:59:04;;;;;;;3.33;2.23;;;21.80;99.90;;;;;;5102096;28;20208;-64
2023/09/21 08:01:30;;;;;;;3.03;2.63;;;21.90;99.90;;;;;;5102342;28;20429;-63
2023/09/21 08:03:55;;;;;;;2.73;2.43;;;21.80;99.90;;;;;;5106262;28;20429;-64
2023/09/21 08:06:22;;;;;;;3.00;2.20;;;21.70;99.90;;;;;;5107065;28;20277;-64
2023/09/21 08:08:50;;;;;;;3.10;2.07;;;21.60;99.90;;;;;;5106209;28;20831;-64
2023/09/21 08:11:16;;;;;;;4.13;2.10;;;21.70;99.90;;;;;;5106991;28;20810;-63
2023/09/21 08:13:42;;;;;;;2.67;2.37;;;21.80;99.90;;;;;;5106589;28;20433;-63
2023/09/21 08:16:08;;;;;;;4.60;2.50;;;21.80;99.90;;;;;;5107025;28;20657;-63
2023/09/21 08:18:36;;;;;;;2.80;2.60;;;21.90;99.90;;;;;;5105621;28;20196;-62
2023/09/21 08:21:06;;;;;;;3.73;2.17;;;21.90;99.90;;;;;;5106389;28;21315;-63
2023/09/21 08:23:32;;;;;;;4.20;2.50;;;21.90;99.90;;;;;;5106340;28;21221;-64
2023/09/21 08:25:58;;;;;;;3.47;2.23;;;21.90;99.90;;;;;;5106280;28;20456;-63
2023/09/21 08:28:25;;;;;;;2.40;2.17;;;22.00;99.90;;;;;;5104777;28;20578;-63
2023/09/21 08:30:52;;;;;;;4.73;2.30;;;21.90;99.90;;;;;;5104300;28;20420;-64
2023/09/21 08:33:17;;;;;;;3.57;2.17;;;21.90;99.90;;;;;;5104207;28;20515;-63
2023/09/21 08:35:43;;;;;;;3.53;2.10;;;21.90;99.90;;;;;;5105593;28;20421;-63
2023/09/21 08:38:09;;;;;;;3.20;2.50;;;21.80;99.90;;;;;;5106581;28;20179;-63
2023/09/21 08:40:37;;;;;;;2.90;2.40;;;21.80;99.90;;;;;;5105560;28;20179;-63
2023/09/21 08:43:04;;;;;;;2.30;2.10;;;21.90;99.90;;;;;;5106427;28;20822;-64
2023/09/21 08:45:33;;;;;;;3.60;2.47;;;22.00;99.90;;;;;;5106570;28;20981;-63
2023/09/21 08:48:02;;;;;;;2.57;2.23;;;22.00;99.90;;;;;;5106042;28;20983;-64
2023/09/21 08:50:29;;;;;;;3.17;2.67;;;22.10;99.90;;;;;;5106200;28;21237;-64
2023/09/21 08:52:56;;;;;;;5.37;2.10;;;22.20;99.90;;;;;;5105422;28;20501;-63
2023/09/21 08:55:25;;;;;;;2.40;2.20;;;22.20;99.90;;;;;;5106138;28;20505;-64
2023/09/21 08:57:53;;;;;;;7.53;2.33;;;22.20;99.90;;;;;;5105190;28;20422;-64
2023/09/21 09:00:23;;;;;;;4.33;2.20;;;22.20;99.90;;;;;;5105875;28;20560;-64
2023/09/21 09:02:49;;;;;;;4.40;2.13;;;22.30;99.90;;;;;;5105372;28;20501;-63
2023/09/21 09:05:16;;;;;;;2.93;2.07;;;22.30;99.90;;;;;;5105983;28;20433;-64
2023/09/21 09:07:42;;;;;;;3.20;2.50;;;22.30;99.90;;;;;;5104741;28;20432;-64
2023/09/21 09:10:10;;;;;;;4.27;2.30;;;22.30;99.90;;;;;;5106124;28;20452;-64
2023/09/21 09:12:37;;;;;;;2.70;2.20;;;22.40;99.90;;;;;;5105094;28;20711;-63
2023/09/21 09:15:04;;;;;;;3.30;2.83;;;22.40;99.90;;;;;;5089612;28;20795;-63
2023/09/21 09:17:32;;;;;;;6.17;2.30;;;22.50;99.90;;;;;;5084834;28;20458;-63
2023/09/21 09:20:02;;;;;;;2.80;2.40;;;22.50;99.90;;;;;;5085714;28;20946;-63
2023/09/21 09:22:31;;;;;;;3.50;2.43;;;22.50;99.90;;;;;;5084822;28;20434;-63
2023/09/21 09:25:04;;;;;;;2.40;2.20;;;22.40;99.90;;;;;;5085405;28;20426;-64
2023/09/21 09:27:30;;;;;;;2.80;2.10;;;22.30;99.90;;;;;;5084874;28;20430;-63
2023/09/21 09:29:57;;;;;;;3.20;2.00;;;22.30;99.90;;;;;;5084805;28;20454;-64
2023/09/21 09:32:24;;;;;;;2.40;2.20;;;22.30;99.90;;;;;;5084801;28;20427;-63
2023/09/21 09:34:50;;;;;;;3.50;1.93;;;22.30;99.90;;;;;;5084503;28;20427;-64
2023/09/21 09:37:16;;;;;;;4.07;2.20;;;22.30;99.90;;;;;;5084873;28;21108;-63
2023/09/21 09:39:47;;;;;;;2.50;2.10;;;22.30;99.90;;;;;;5084087;28;20473;-63
2023/09/21 09:42:13;;;;;;;2.20;2.00;;;22.40;99.90;;;;;;5084934;28;21086;-64
2023/09/21 09:44:48;;;;;;;2.93;2.50;;;22.40;99.90;;;;;;5084046;28;20426;-63
2023/09/21 09:47:18;;;;;;;3.77;2.23;;;22.40;99.90;;;;;;5084553;28;20524;-64
2023/09/21 09:49:49;;;;;;;2.97;2.17;;;22.40;99.90;;;;;;5083814;28;20511;-63
2023/09/21 09:52:18;;;;;;;6.50;2.03;;;22.40;99.90;;;;;;5084881;28;21021;-64
2023/09/21 09:54:48;;;;;;;2.67;2.10;;;22.40;99.90;;;;;;5082285;28;20595;-63
2023/09/21 09:57:15;;;;;;;2.50;2.10;;;22.50;99.90;;;;;;5084625;28;20488;-64
2023/09/21 09:59:42;;;;;;;2.90;2.50;;;22.50;99.90;;;;;;5081344;28;20974;-64
2023/09/21 10:02:16;;;;;;;3.50;2.37;;;22.50;99.90;;;;;;5084496;28;20917;-63
2023/09/21 10:04:46;;;;;;;4.53;2.70;;;22.50;99.90;;;;;;5083802;28;20916;-64
2023/09/21 10:07:16;;;;;;;4.53;2.23;;;22.60;99.90;;;;;;5084423;28;20422;-63
2023/09/21 10:09:45;;;;;;;2.13;1.90;;;22.70;99.90;;;;;;5065326;28;21078;-63
2023/09/21 10:12:12;;;;;;;2.80;1.97;;;22.90;99.90;;;;;;5084273;28;20437;-63
2023/09/21 10:14:45;;;;;;;3.87;2.40;;;23.00;99.90;;;;;;5083506;28;20419;-64
2023/09/21 10:17:14;;;;;;;2.20;2.07;;;23.00;99.90;;;;;;5084201;28;21091;-64
2023/09/21 10:19:43;;;;;;;2.63;2.10;;;22.90;99.90;;;;;;5083307;28;20580;-63
2023/09/21 10:22:21;;;;;;;3.63;2.50;;;22.90;99.90;;;;;;5084341;28;20434;-64
2023/09/21 10:24:53;;;;;;;2.83;2.10;;;22.80;99.90;;;;;;5081964;28;20422;-64
2023/09/21 10:27:25;;;;;;;3.10;2.60;;;22.70;99.90;;;;;;5084108;28;21175;-64
2023/09/21 10:30:00;;;;;;;2.73;2.10;;;22.70;99.90;;;;;;5083451;28;20433;-63
2023/09/21 10:32:43;;;;;;;2.83;2.43;;;22.60;99.90;;;;;;5065049;28;20502;-64
2023/09/21 10:35:14;;;;;;;4.03;2.40;;;22.50;99.90;;;;;;5083985;28;20426;-64
2023/09/21 10:37:40;;;;;;;5.20;2.70;;;22.30;99.90;;;;;;5082929;28;20454;-64
2023/09/21 10:40:08;;;;;;;2.77;2.20;;;22.30;99.90;;;;;;5083590;28;20627;-64
2023/09/21 10:42:39;;;;;;;5.63;2.50;;;22.30;99.90;;;;;;5083116;28;20482;-63
2023/09/21 10:45:07;;;;;;;5.40;2.40;;;22.20;99.90;;;;;;5083938;28;20503;-64
2023/09/21 10:47:36;;;;;;;3.37;2.40;;;22.20;99.90;;;;;;5082396;28;20520;-63
2023/09/21 10:50:10;;;;;;;3.20;2.10;;;22.10;99.90;;;;;;5089928;28;20472;-63
2023/09/21 10:52:41;;;;;;;3.80;2.77;;;22.10;99.90;;;;;;5102856;28;21079;-63
2023/09/21 10:55:09;;;;;;;2.60;2.20;;;22.10;99.90;;;;;;5103901;28;20426;-65
2023/09/21 10:57:35;;;;;;;3.20;2.03;;;22.10;99.90;;;;;;5102877;28;20429;-64
2023/09/21 11:00:05;;;;;;;3.30;2.50;;;22.00;99.90;;;;;;5097090;28;20488;-63
2023/09/21 11:02:31;;;;;;;2.40;2.20;;;22.00;99.90;;;;;;5082755;28;20483;-63
2023/09/21 11:04:58;;;;;;;2.90;2.50;;;22.10;99.90;;;;;;5083317;28;20984;-64
2023/09/21 11:07:25;;;;;;;3.13;2.40;;;22.00;99.90;;;;;;5082809;28;20442;-63
2023/09/21 11:09:51;;;;;;;2.80;2.10;;;22.00;99.90;;;;;;5082735;28;20434;-64
2023/09/21 11:12:18;;;;;;;2.40;2.17;;;22.00;99.90;;;;;;5083226;28;20431;-64
2023/09/21 11:14:45;;;;;;;3.37;2.27;;;22.00;99.90;;;;;;5082403;28;20188;-63
2023/09/21 11:17:16;;;;;;;2.50;2.00;;;22.00;99.90;;;;;;5083345;28;20836;-63
2023/09/21 11:19:42;;;;;;;2.97;2.40;;;22.00;99.90;;;;;;5082351;28;20823;-63
2023/09/21 11:22:09;;;;;;;3.57;2.43;;;21.90;99.90;;;;;;5083164;28;20437;-64
2023/09/21 11:24:36;;;;;;;4.80;2.30;;;21.90;99.90;;;;;;5082542;28;20422;-64
2023/09/21 11:27:03;;;;;;;3.80;2.27;;;21.80;99.90;;;;;;5083636;28;20529;-64
2023/09/21 11:29:29;;;;;;;2.80;2.40;;;21.90;99.90;;;;;;5081565;28;20453;-63
2023/09/21 11:31:55;;;;;;;3.00;2.67;;;21.90;99.90;;;;;;5082567;28;20916;-64
2023/09/21 11:34:21;;;;;;;2.30;2.03;;;21.90;99.90;;;;;;5089291;28;20183;-63
2023/09/21 11:36:49;;;;;;;4.33;2.43;;;22.00;99.90;;;;;;5102102;28;20180;-64
2023/09/21 11:39:15;;;;;;;2.80;2.53;;;22.20;99.90;;;;;;5103040;28;20227;-64
2023/09/21 11:41:40;;;;;;;2.80;2.20;;;22.30;99.90;;;;;;5084325;28;20425;-63
2023/09/21 11:44:06;;;;;;;2.50;2.30;;;22.30;99.90;;;;;;5069633;28;20192;-64
2023/09/21 11:46:34;;;;;;;5.00;2.37;;;22.40;99.90;;;;;;5064096;28;20184;-63
2023/09/21 11:49:00;;;;;;;2.77;2.30;;;22.50;99.90;;;;;;5082663;28;20522;-64
2023/09/21 11:51:28;;;;;;;4.53;2.77;;;22.50;99.90;;;;;;5094856;28;20441;-63
2023/09/21 11:53:58;;;;;;;3.97;2.43;;;22.50;99.90;;;;;;5094887;28;20528;-63
2023/09/21 11:56:26;;;;;;;3.57;2.10;;;22.60;99.90;;;;;;5100442;28;20850;-63
2023/09/21 11:58:58;;;;;;;2.83;2.53;;;22.70;99.90;;;;;;5100979;28;20552;-64
2023/09/21 12:01:28;;;;;;;4.30;2.80;;;22.70;99.90;;;;;;5100648;28;20799;-64
2023/09/21 12:03:56;;;;;;;2.70;2.10;;;22.80;99.90;;;;;;5101523;28;20429;-63
2023/09/21 12:06:24;;;;;;;3.47;2.33;;;22.80;99.90;;;;;;5101093;28;20444;-63
2023/09/21 12:08:51;;;;;;;5.10;1.87;;;22.70;99.90;;;;;;5101027;28;20494;-63
2023/09/21 12:11:16;;;;;;;2.50;2.23;;;22.70;99.90;;;;;;5101023;28;20429;-64
2023/09/21 12:13:42;;;;;;;6.30;2.30;;;22.60;99.90;;;;;;5100547;28;20538;-63
2023/09/21 12:16:08;;;;;;;3.60;2.80;;;22.50;99.90;;;;;;5102483;28;20195;-64
2023/09/21 12:18:33;;;;;;;2.67;2.37;;;22.50;99.90;;;;;;5101787;28;20558;-63
2023/09/21 12:21:00;;;;;;;4.60;2.77;;;22.40;99.90;;;;;;5103227;28;20593;-64
2023/09/21 12:23:26;;;;;;;2.57;2.20;;;22.40;99.90;;;;;;5102078;28;20187;-63
2023/09/21 12:25:53;;;;;;;2.60;2.10;;;22.30;99.90;;;;;;5102612;28;20421;-64
2023/09/21 12:28:19;;;;;;;3.60;2.63;;;22.30;99.90;;;;;;5102456;28;20432;-64
2023/09/21 12:30:48;;;;;;;2.90;2.47;;;22.30;99.90;;;;;;5102602;28;20430;-64
2023/09/21 12:33:17;;;;;;;2.90;2.20;;;22.30;99.90;;;;;;5099446;28;20429;-64
2023/09/21 12:35:43;;;;;;;2.40;2.20;;;22.20;99.90;;;;;;5100415;28;20437;-64
2023/09/21 12:38:10;;;;;;;3.10;2.67;;;22.20;99.90;;;;;;5102846;28;20429;-64
2023/09/21 12:40:37;;;;;;;3.37;2.43;;;22.20;99.90;;;;;;5101851;28;20422;-63
2023/09/21 12:43:05;;;;;;;4.10;3.03;;;22.20;99.90;;;;;;5102852;28;20444;-64
2023/09/21 12:45:32;;;;;;;5.10;2.30;;;22.20;99.90;;;;;;5101786;28;20421;-63
2023/09/21 12:47:59;;;;;;;4.70;2.80;;;22.20;99.90;;;;;;5102835;28;20516;-64
2023/09/21 12:50:26;;;;;;;3.50;2.67;;;22.20;99.90;;;;;;5087057;28;20917;-63